Terminal Aerodrome Forecast
Issued by NWS

Home | Current Version | Previous Version | Text Only | Print | Product List | Glossary On
Versions: 1 2 3 4 5 6 7 8 9 10 11 12 13
000
FTPA31 PHFO 291000 AAA
TAFHLI
TAF AMD
PHLI 291000Z 2910/3006 06015KT P6SM VCSH SCT020 BKN050
      TEMPO 2910/2914 -SHRA BKN020=

USA.gov is the U.S. government's official web portal to all federal, state and local government web resources and services.